createdAt,value
2022-08-02T00:03:09.861Z,20
2022-08-02T00:08:43.419Z,19.8
2022-08-02T00:14:16.999Z,19.8
2022-08-02T00:19:50.522Z,19.8
2022-08-02T00:25:15.923Z,19.8
2022-08-02T00:30:49.470Z,19.5
2022-08-02T00:36:23.037Z,19.5
2022-08-02T00:41:56.606Z,19.4
2022-08-02T00:47:30.145Z,19.4
2022-08-02T00:53:03.698Z,19.3
2022-08-02T00:58:37.265Z,19.2
2022-08-02T01:04:10.813Z,19.2
2022-08-02T01:09:44.376Z,19.1
2022-08-02T01:14:49.220Z,19.1
2022-08-02T01:20:22.629Z,19
2022-08-02T01:25:47.995Z,18.9
2022-08-02T01:31:21.559Z,18.9
2022-08-02T01:36:55.112Z,18.9
2022-08-02T01:42:28.663Z,18.8
2022-08-02T01:48:02.227Z,18.8
2022-08-02T01:53:35.784Z,18.9
2022-08-02T01:59:09.336Z,18.7
2022-08-02T02:04:42.898Z,18.7
2022-08-02T02:10:16.476Z,18.8
2022-08-02T02:15:50.046Z,18.7
2022-08-02T02:21:23.589Z,18.7
2022-08-02T02:26:52.360Z,18.6
2022-08-02T02:32:22.483Z,18.6
2022-08-02T02:37:56.056Z,18.5
2022-08-02T02:43:29.623Z,18.5
2022-08-02T02:49:03.238Z,18.5
2022-08-02T02:54:36.750Z,18.4
2022-08-02T03:00:10.279Z,18.5
2022-08-02T03:05:43.869Z,18.4
2022-08-02T03:11:17.401Z,18.4
2022-08-02T03:16:50.953Z,18.3
2022-08-02T03:22:24.530Z,18.3
2022-08-02T03:27:49.917Z,18.3
2022-08-02T03:33:23.650Z,18.3
2022-08-02T03:38:57.005Z,18.2
2022-08-02T03:44:01.682Z,18.2
2022-08-02T03:49:35.323Z,18.2
2022-08-02T03:55:08.814Z,18.2
2022-08-02T04:00:42.452Z,18.3
2022-08-02T04:06:15.945Z,18.1
2022-08-02T04:11:49.481Z,18.1
2022-08-02T04:17:23.070Z,18.1
2022-08-02T04:22:56.625Z,18
2022-08-02T04:28:27.681Z,17.8
2022-08-02T04:33:55.540Z,17.7
2022-08-02T04:39:29.091Z,17.7
2022-08-02T04:45:02.647Z,17.7
2022-08-02T04:50:36.230Z,17.8
2022-08-02T04:56:09.816Z,17.8
2022-08-02T05:01:43.341Z,17.7
2022-08-02T05:07:16.871Z,17.7
2022-08-02T05:12:50.425Z,17.8
2022-08-02T05:18:24.030Z,17.6
2022-08-02T05:23:57.577Z,17.3
2022-08-02T05:29:22.938Z,17.4
2022-08-02T05:34:56.527Z,17.7
2022-08-02T05:40:30.041Z,18.1
2022-08-02T05:46:03.600Z,19
2022-08-02T05:51:37.188Z,19.8
2022-08-02T05:57:10.703Z,19.9
2022-08-02T06:02:44.268Z,20.1
2022-08-02T06:08:17.850Z,20.4
2022-08-02T06:13:22.544Z,20.1
2022-08-02T06:18:56.093Z,20.7
2022-08-02T06:24:29.651Z,20.9
2022-08-02T06:29:55.021Z,21
2022-08-02T06:35:28.557Z,21.9
2022-08-02T06:41:02.115Z,23
2022-08-02T06:47:10.194Z,24.1
2022-08-02T06:52:09.462Z,25
2022-08-02T06:57:42.835Z,25.9
2022-08-02T07:03:16.380Z,25.5
2022-08-02T07:09:11.323Z,25.7
2022-08-02T07:14:23.502Z,26.8
2022-08-02T07:19:57.058Z,27.9
2022-08-02T07:26:02.655Z,29.2
2022-08-02T07:30:55.970Z,30.3
2022-08-02T07:36:29.518Z,30.9
2022-08-02T07:42:03.098Z,31.6
2022-08-02T07:47:36.648Z,31.4
2022-08-02T07:53:10.191Z,31.6
2022-08-02T07:58:43.754Z,32.7
2022-08-02T08:04:17.326Z,33.4
2022-08-02T08:09:51.190Z,34.8
2022-08-02T08:15:24.438Z,35
2022-08-02T08:20:58.023Z,34.7
2022-08-02T08:26:31.557Z,34.6
2022-08-02T08:31:56.942Z,35.9
2022-08-02T08:37:30.472Z,35.2
2022-08-02T08:42:35.192Z,35.8
2022-08-02T08:48:08.741Z,35
2022-08-02T08:53:42.291Z,35.9
2022-08-02T08:59:15.858Z,36.8
2022-08-02T09:04:54.960Z,38
2022-08-02T09:10:22.999Z,37.8
2022-08-02T09:15:56.588Z,38.9
2022-08-02T09:21:30.241Z,38.8
2022-08-02T09:27:03.677Z,39.1
2022-08-02T09:32:29.060Z,39
2022-08-02T09:38:02.605Z,38
2022-08-02T09:43:36.154Z,22.4
2022-08-02T09:49:09.853Z,38
2022-08-02T09:54:43.289Z,37.9
2022-08-02T10:00:27.010Z,38.9
2022-08-02T10:05:55.448Z,38.7
2022-08-02T10:11:23.934Z,39.2
2022-08-02T10:17:34.581Z,38.9
2022-08-02T10:23:08.143Z,38.2
2022-08-02T10:28:41.673Z,37.1
2022-08-02T10:34:07.064Z,37.6
2022-08-02T10:39:40.609Z,37.3
2022-08-02T10:45:14.190Z,37.3
2022-08-02T10:50:47.748Z,36.8
2022-08-02T10:56:21.294Z,37.3
2022-08-02T11:01:54.851Z,36.7
2022-08-02T11:07:28.413Z,36.4
2022-08-02T11:12:33.120Z,36.3
2022-08-02T11:18:06.683Z,35.8
2022-08-02T11:23:44.635Z,36.2
2022-08-02T11:29:05.604Z,36
2022-08-02T11:34:39.146Z,36
2022-08-02T11:40:18.937Z,34.6
2022-08-02T11:45:46.295Z,34.9
2022-08-02T11:51:19.796Z,34.1
2022-08-02T11:56:53.377Z,35.4
2022-08-02T12:02:26.932Z,35.6
2022-08-02T12:08:00.479Z,35.2
2022-08-02T12:13:34.068Z,35.2
2022-08-02T12:19:07.621Z,33.7
2022-08-02T12:24:41.172Z,34.2
2022-08-02T12:30:10.628Z,34.2
2022-08-02T12:36:21.227Z,34
2022-08-02T12:41:55.307Z,34
2022-08-02T12:47:31.338Z,34
2022-08-02T12:53:01.916Z,33.9
2022-08-02T12:58:35.472Z,34.1
2022-08-02T13:04:13.645Z,33.8
2022-08-02T13:09:42.584Z,34.1
2022-08-02T13:15:50.454Z,33.9
2022-08-02T13:20:49.733Z,33.7
2022-08-02T13:26:23.262Z,33.9
2022-08-02T13:31:48.633Z,33.7
2022-08-02T13:37:22.233Z,34.1
2022-08-02T13:42:26.941Z,34.2
2022-08-02T13:48:05.510Z,34.3
2022-08-02T13:53:34.032Z,34.6
2022-08-02T13:59:54.898Z,34.5
2022-08-02T14:04:41.125Z,34.1
2022-08-02T14:10:14.712Z,34.5
2022-08-02T14:15:48.268Z,34.7
2022-08-02T14:21:21.800Z,34.3
2022-08-02T14:26:55.397Z,34.5
2022-08-02T14:32:57.794Z,34.3
2022-08-02T14:38:31.365Z,33.7
2022-08-02T14:44:42.026Z,33.9
2022-08-02T14:50:52.637Z,33.7
2022-08-02T14:57:03.294Z,33.7
2022-08-02T15:02:36.942Z,34.1
2022-08-02T15:08:10.358Z,34
2022-08-02T15:14:25.514Z,34
2022-08-02T15:19:57.673Z,33.8
2022-08-02T15:25:28.124Z,33.4
2022-08-02T15:30:53.479Z,33.5
2022-08-02T15:36:27.037Z,33.5
2022-08-02T15:42:00.572Z,33.3
2022-08-02T15:47:34.136Z,33.2
2022-08-02T15:53:07.696Z,33.4
2022-08-02T15:58:44.281Z,33.7
2022-08-02T16:04:14.836Z,33.9
2022-08-02T16:09:48.373Z,33.8
2022-08-02T16:14:53.060Z,33.7
2022-08-02T16:20:26.623Z,33.6
2022-08-02T16:26:00.174Z,33.9
2022-08-02T16:32:39.697Z,33.7
2022-08-02T16:38:13.231Z,33.8
2022-08-02T16:43:46.824Z,33.5
2022-08-02T16:50:05.768Z,33.6
2022-08-02T16:54:53.951Z,33.5
2022-08-02T17:00:27.488Z,33.5
2022-08-02T17:06:01.040Z,33.5
2022-08-02T17:11:38.703Z,33.5
2022-08-02T17:17:08.169Z,33.5
2022-08-02T17:22:41.724Z,33.3
2022-08-02T17:28:15.301Z,33.3
2022-08-02T17:33:40.648Z,33.2
2022-08-02T17:39:14.208Z,32.7
2022-08-02T17:44:49.266Z,32.7
2022-08-02T17:50:21.346Z,32.7
2022-08-02T17:55:54.889Z,32.4
2022-08-02T18:01:28.444Z,32.4
2022-08-02T18:07:04.050Z,32.2
2022-08-02T18:12:35.561Z,32
2022-08-02T18:18:09.164Z,31.9
2022-08-02T18:23:44.183Z,31.6
2022-08-02T18:29:16.263Z,31.5
2022-08-02T18:34:47.821Z,31.2
2022-08-02T18:40:19.290Z,31.1
2022-08-02T18:45:23.978Z,30.9
2022-08-02T18:51:36.751Z,30.6
2022-08-02T18:58:04.355Z,33.3
2022-08-02T19:02:41.700Z,30
2022-08-02T19:08:15.262Z,29.8
2022-08-02T19:13:48.823Z,29.6
2022-08-02T19:19:22.388Z,29.4
2022-08-02T19:24:55.926Z,29.2
2022-08-02T19:30:29.512Z,29
2022-08-02T19:36:01.809Z,28.7
2022-08-02T19:41:28.454Z,28.6
2022-08-02T19:47:01.993Z,28.3
2022-08-02T19:52:35.561Z,28.2
2022-08-02T19:58:09.111Z,28.1
2022-08-02T20:03:51.314Z,27.8
2022-08-02T20:09:16.891Z,27.7
2022-08-02T20:14:50.697Z,27.5
2022-08-02T20:20:23.343Z,27.4
2022-08-02T20:25:56.901Z,27.2
2022-08-02T20:31:30.672Z,27.1
2022-08-02T20:36:55.818Z,26.9
2022-08-02T20:43:06.471Z,26.8
2022-08-02T20:48:40.114Z,26.7
2022-08-02T20:54:13.565Z,29.3
2022-08-02T21:05:20.686Z,26.3
2022-08-02T21:10:55.529Z,26.1
2022-08-02T21:15:59.404Z,26
2022-08-02T21:21:32.495Z,26
2022-08-02T21:27:06.071Z,25.8
2022-08-02T21:32:39.612Z,25.8
2022-08-02T21:38:04.985Z,25.3
2022-08-02T21:43:39.219Z,25
2022-08-02T21:49:12.457Z,24.9
2022-08-02T21:54:45.898Z,24.7
2022-08-02T22:00:28.359Z,24.8
2022-08-02T22:05:52.792Z,24.8
2022-08-02T22:11:26.347Z,24.7
2022-08-02T22:16:59.880Z,24.6
2022-08-02T22:22:33.458Z,24.6
2022-08-02T22:28:37.413Z,24.5
2022-08-02T22:34:26.760Z,24.5
2022-08-02T22:40:09.024Z,24.5
2022-08-02T22:45:16.591Z,24.5
2022-08-02T22:50:50.133Z,24.4
2022-08-02T22:56:23.688Z,24.3
2022-08-02T22:59:07.627Z,26.4
2022-08-02T23:01:57.299Z,24.2
2022-08-02T23:07:36.357Z,24.1
2022-08-02T23:13:04.383Z,23.9
2022-08-02T23:18:37.921Z,23.9
2022-08-02T23:24:11.480Z,23.7
2022-08-02T23:29:45.048Z,23.6
2022-08-02T23:35:18.622Z,23.3
2022-08-02T23:41:29.250Z,23.2
2022-08-02T23:46:34.059Z,23.2
2022-08-02T23:52:07.480Z,23.1
2022-08-02T23:57:32.850Z,23.1
